Akune, Japan
Current Conditions -  °F | °C
As of 9:00 PM on Thursday 23 Oct 2014 (Local Time) from RJFK Reporting Station
Scattered Clouds Scattered Clouds  
Wind Chill: 63°   Ceiling: Unl
Heat Index: 63°   Visibility: 6mi
Dew Point: 52°   Wind: 6mph
Humidity: 68%   Direction: 90°E
Pressure: 30.09"   Gusts: NA
Location:  32.01°N, 130.2°E
Report Text: RJFK 231200Z 09005KT 9999 FEW020 SCT030 17/11 Q1019 RMK 1CU020 3CU030 A3010
Loading
Personal Weather Stations






























Interactive Weather Map
Tropical Storm Tracking
New forecast layout! Learn more

10-Day Weather Forecast

Advertisements
Track Severe Weather on mobile